sensor_id;sensor_type;location;lat;lon;timestamp;P1;durP1;ratioP1;P2;durP2;ratioP2
58784;SDS011;44557;51.862;19.378;2023-07-29T00:00:40;7.00;;;5.10;;
58784;SDS011;44557;51.862;19.378;2023-07-29T00:02:57;8.30;;;5.40;;
58784;SDS011;44557;51.862;19.378;2023-07-29T00:04:59;8.70;;;5.30;;
58784;SDS011;44557;51.862;19.378;2023-07-29T00:07:01;7.90;;;4.80;;
58784;SDS011;44557;51.862;19.378;2023-07-29T00:09:03;7.00;;;5.30;;
58784;SDS011;44557;51.862;19.378;2023-07-29T00:11:05;7.80;;;5.00;;
58784;SDS011;44557;51.862;19.378;2023-07-29T00:13:06;7.90;;;4.90;;
58784;SDS011;44557;51.862;19.378;2023-07-29T00:15:08;8.50;;;5.50;;
58784;SDS011;44557;51.862;19.378;2023-07-29T00:17:10;7.40;;;5.20;;
58784;SDS011;44557;51.862;19.378;2023-07-29T00:19:12;7.20;;;5.20;;
58784;SDS011;44557;51.862;19.378;2023-07-29T00:21:13;6.60;;;5.10;;
58784;SDS011;44557;51.862;19.378;2023-07-29T00:23:16;7.10;;;5.10;;
58784;SDS011;44557;51.862;19.378;2023-07-29T00:25:22;9.80;;;5.30;;
58784;SDS011;44557;51.862;19.378;2023-07-29T00:27:24;8.60;;;5.40;;
58784;SDS011;44557;51.862;19.378;2023-07-29T00:29:26;7.80;;;4.90;;
58784;SDS011;44557;51.862;19.378;2023-07-29T00:31:28;8.60;;;5.70;;
58784;SDS011;44557;51.862;19.378;2023-07-29T00:33:30;7.30;;;5.20;;
58784;SDS011;44557;51.862;19.378;2023-07-29T00:35:32;8.90;;;5.10;;
58784;SDS011;44557;51.862;19.378;2023-07-29T00:37:33;6.30;;;5.20;;
58784;SDS011;44557;51.862;19.378;2023-07-29T00:39:35;7.50;;;5.20;;
58784;SDS011;44557;51.862;19.378;2023-07-29T00:41:38;6.20;;;4.80;;
58784;SDS011;44557;51.862;19.378;2023-07-29T00:43:39;8.90;;;5.70;;
58784;SDS011;44557;51.862;19.378;2023-07-29T00:45:41;9.40;;;5.80;;
58784;SDS011;44557;51.862;19.378;2023-07-29T00:47:45;7.40;;;5.40;;
58784;SDS011;44557;51.862;19.378;2023-07-29T00:49:48;7.80;;;5.70;;
58784;SDS011;44557;51.862;19.378;2023-07-29T00:51:50;7.70;;;5.90;;
58784;SDS011;44557;51.862;19.378;2023-07-29T00:53:51;8.80;;;6.60;;
58784;SDS011;44557;51.862;19.378;2023-07-29T00:55:53;10.00;;;6.20;;
58784;SDS011;44557;51.862;19.378;2023-07-29T00:57:55;8.60;;;6.40;;
58784;SDS011;44557;51.862;19.378;2023-07-29T00:59:57;7.30;;;5.80;;
58784;SDS011;44557;51.862;19.378;2023-07-29T01:02:00;7.40;;;6.00;;
58784;SDS011;44557;51.862;19.378;2023-07-29T01:04:02;8.70;;;5.80;;
58784;SDS011;44557;51.862;19.378;2023-07-29T01:11:08;8.10;;;6.20;;
58784;SDS011;44557;51.862;19.378;2023-07-29T01:13:50;8.40;;;6.00;;
58784;SDS011;44557;51.862;19.378;2023-07-29T01:15:56;8.90;;;5.60;;
58784;SDS011;44557;51.862;19.378;2023-07-29T01:18:05;8.70;;;5.80;;
58784;SDS011;44557;51.862;19.378;2023-07-29T01:22:17;9.70;;;5.60;;
58784;SDS011;44557;51.862;19.378;2023-07-29T01:24:21;7.80;;;5.70;;
58784;SDS011;44557;51.862;19.378;2023-07-29T01:26:22;8.40;;;5.40;;
58784;SDS011;44557;51.862;19.378;2023-07-29T01:28:24;7.40;;;5.70;;
58784;SDS011;44557;51.862;19.378;2023-07-29T01:30:29;7.30;;;5.80;;
58784;SDS011;44557;51.862;19.378;2023-07-29T01:34:46;9.80;;;6.00;;
58784;SDS011;44557;51.862;19.378;2023-07-29T01:36:54;9.50;;;6.00;;
58784;SDS011;44557;51.862;19.378;2023-07-29T01:39:00;8.20;;;5.90;;
58784;SDS011;44557;51.862;19.378;2023-07-29T01:41:04;10.30;;;5.60;;
58784;SDS011;44557;51.862;19.378;2023-07-29T01:43:08;8.50;;;5.40;;
58784;SDS011;44557;51.862;19.378;2023-07-29T01:45:11;8.10;;;5.40;;
58784;SDS011;44557;51.862;19.378;2023-07-29T01:47:13;9.80;;;6.10;;
58784;SDS011;44557;51.862;19.378;2023-07-29T01:49:14;8.70;;;5.60;;
58784;SDS011;44557;51.862;19.378;2023-07-29T01:51:16;8.80;;;5.90;;
58784;SDS011;44557;51.862;19.378;2023-07-29T01:53:18;8.10;;;6.60;;
58784;SDS011;44557;51.862;19.378;2023-07-29T01:55:20;9.20;;;5.90;;
58784;SDS011;44557;51.862;19.378;2023-07-29T01:57:21;7.80;;;6.10;;
58784;SDS011;44557;51.862;19.378;2023-07-29T01:59:23;8.40;;;6.60;;
58784;SDS011;44557;51.862;19.378;2023-07-29T02:01:24;9.30;;;6.60;;
58784;SDS011;44557;51.862;19.378;2023-07-29T02:03:26;8.60;;;6.90;;
58784;SDS011;44557;51.862;19.378;2023-07-29T02:05:28;9.00;;;7.20;;
58784;SDS011;44557;51.862;19.378;2023-07-29T02:07:30;10.30;;;7.20;;
58784;SDS011;44557;51.862;19.378;2023-07-29T02:09:33;8.70;;;7.20;;
58784;SDS011;44557;51.862;19.378;2023-07-29T02:11:35;8.90;;;7.80;;
58784;SDS011;44557;51.862;19.378;2023-07-29T02:13:37;8.90;;;7.70;;
58784;SDS011;44557;51.862;19.378;2023-07-29T02:15:39;10.60;;;8.70;;
58784;SDS011;44557;51.862;19.378;2023-07-29T02:17:41;13.80;;;9.60;;
58784;SDS011;44557;51.862;19.378;2023-07-29T02:19:43;15.20;;;10.00;;
58784;SDS011;44557;51.862;19.378;2023-07-29T02:21:45;11.60;;;9.60;;
58784;SDS011;44557;51.862;19.378;2023-07-29T02:23:47;14.40;;;10.20;;
58784;SDS011;44557;51.862;19.378;2023-07-29T02:25:49;12.90;;;10.80;;
58784;SDS011;44557;51.862;19.378;2023-07-29T02:27:51;12.60;;;10.40;;
58784;SDS011;44557;51.862;19.378;2023-07-29T02:29:53;11.40;;;9.90;;
58784;SDS011;44557;51.862;19.378;2023-07-29T02:31:55;13.30;;;10.30;;
58784;SDS011;44557;51.862;19.378;2023-07-29T02:33:57;11.30;;;9.10;;
58784;SDS011;44557;51.862;19.378;2023-07-29T02:35:59;12.20;;;9.40;;
58784;SDS011;44557;51.862;19.378;2023-07-29T02:38:01;10.90;;;9.50;;
58784;SDS011;44557;51.862;19.378;2023-07-29T02:40:03;11.40;;;9.30;;
58784;SDS011;44557;51.862;19.378;2023-07-29T02:42:05;12.30;;;9.90;;
58784;SDS011;44557;51.862;19.378;2023-07-29T02:44:07;11.10;;;9.30;;
58784;SDS011;44557;51.862;19.378;2023-07-29T02:46:09;10.80;;;9.70;;
58784;SDS011;44557;51.862;19.378;2023-07-29T02:48:10;12.10;;;9.70;;
58784;SDS011;44557;51.862;19.378;2023-07-29T02:50:12;10.50;;;9.00;;
58784;SDS011;44557;51.862;19.378;2023-07-29T02:52:14;12.50;;;9.90;;
58784;SDS011;44557;51.862;19.378;2023-07-29T02:54:16;12.60;;;11.00;;
58784;SDS011;44557;51.862;19.378;2023-07-29T02:56:18;13.30;;;9.80;;
58784;SDS011;44557;51.862;19.378;2023-07-29T02:58:20;13.60;;;11.60;;
58784;SDS011;44557;51.862;19.378;2023-07-29T03:00:21;14.30;;;10.60;;
58784;SDS011;44557;51.862;19.378;2023-07-29T03:02:23;15.10;;;10.90;;
58784;SDS011;44557;51.862;19.378;2023-07-29T03:04:25;14.20;;;11.50;;
58784;SDS011;44557;51.862;19.378;2023-07-29T03:06:26;14.40;;;12.60;;
58784;SDS011;44557;51.862;19.378;2023-07-29T03:08:28;15.90;;;11.80;;
58784;SDS011;44557;51.862;19.378;2023-07-29T03:10:30;16.40;;;11.70;;
58784;SDS011;44557;51.862;19.378;2023-07-29T03:12:32;18.00;;;11.60;;
58784;SDS011;44557;51.862;19.378;2023-07-29T03:14:34;14.80;;;11.60;;
58784;SDS011;44557;51.862;19.378;2023-07-29T03:16:36;16.20;;;12.20;;
58784;SDS011;44557;51.862;19.378;2023-07-29T03:18:38;14.80;;;11.90;;
58784;SDS011;44557;51.862;19.378;2023-07-29T03:20:40;23.70;;;12.00;;
58784;SDS011;44557;51.862;19.378;2023-07-29T03:22:42;19.00;;;11.90;;
58784;SDS011;44557;51.862;19.378;2023-07-29T03:24:43;18.30;;;11.90;;
58784;SDS011;44557;51.862;19.378;2023-07-29T03:26:45;15.30;;;12.00;;
58784;SDS011;44557;51.862;19.378;2023-07-29T03:28:47;15.10;;;11.50;;
58784;SDS011;44557;51.862;19.378;2023-07-29T03:30:49;17.30;;;12.60;;
58784;SDS011;44557;51.862;19.378;2023-07-29T03:32:51;15.00;;;12.90;;
58784;SDS011;44557;51.862;19.378;2023-07-29T03:34:53;15.00;;;12.00;;
58784;SDS011;44557;51.862;19.378;2023-07-29T03:36:55;13.40;;;11.60;;
58784;SDS011;44557;51.862;19.378;2023-07-29T03:38:57;22.60;;;12.20;;
58784;SDS011;44557;51.862;19.378;2023-07-29T03:40:59;13.60;;;11.80;;
58784;SDS011;44557;51.862;19.378;2023-07-29T03:43:03;15.60;;;12.40;;
58784;SDS011;44557;51.862;19.378;2023-07-29T03:45:05;14.80;;;12.50;;
58784;SDS011;44557;51.862;19.378;2023-07-29T03:47:07;16.70;;;10.90;;
58784;SDS011;44557;51.862;19.378;2023-07-29T03:49:09;14.20;;;11.80;;
58784;SDS011;44557;51.862;19.378;2023-07-29T03:51:11;15.20;;;12.20;;
58784;SDS011;44557;51.862;19.378;2023-07-29T03:53:13;13.50;;;11.30;;
58784;SDS011;44557;51.862;19.378;2023-07-29T03:55:14;11.80;;;10.50;;
58784;SDS011;44557;51.862;19.378;2023-07-29T03:57:16;11.80;;;10.30;;
58784;SDS011;44557;51.862;19.378;2023-07-29T03:59:18;30.80;;;10.60;;
58784;SDS011;44557;51.862;19.378;2023-07-29T04:01:20;13.20;;;11.10;;
58784;SDS011;44557;51.862;19.378;2023-07-29T04:03:22;14.70;;;10.30;;
58784;SDS011;44557;51.862;19.378;2023-07-29T04:05:23;20.50;;;10.20;;
58784;SDS011;44557;51.862;19.378;2023-07-29T04:07:25;14.40;;;9.70;;
58784;SDS011;44557;51.862;19.378;2023-07-29T04:09:27;14.00;;;9.80;;
58784;SDS011;44557;51.862;19.378;2023-07-29T04:11:29;13.50;;;10.40;;
58784;SDS011;44557;51.862;19.378;2023-07-29T04:13:31;13.70;;;9.70;;
58784;SDS011;44557;51.862;19.378;2023-07-29T04:15:33;22.70;;;10.10;;
58784;SDS011;44557;51.862;19.378;2023-07-29T04:17:35;17.50;;;10.00;;
58784;SDS011;44557;51.862;19.378;2023-07-29T04:19:36;18.60;;;9.90;;
58784;SDS011;44557;51.862;19.378;2023-07-29T04:21:38;14.70;;;10.00;;
58784;SDS011;44557;51.862;19.378;2023-07-29T04:23:39;15.70;;;10.10;;
58784;SDS011;44557;51.862;19.378;2023-07-29T04:25:41;13.20;;;9.10;;
58784;SDS011;44557;51.862;19.378;2023-07-29T04:27:43;12.40;;;9.40;;
58784;SDS011;44557;51.862;19.378;2023-07-29T04:29:45;14.80;;;9.30;;
58784;SDS011;44557;51.862;19.378;2023-07-29T04:31:46;13.00;;;9.70;;
58784;SDS011;44557;51.862;19.378;2023-07-29T04:33:48;26.70;;;10.70;;
58784;SDS011;44557;51.862;19.378;2023-07-29T04:35:49;13.90;;;9.60;;
58784;SDS011;44557;51.862;19.378;2023-07-29T04:37:52;13.20;;;11.60;;
58784;SDS011;44557;51.862;19.378;2023-07-29T04:39:53;24.10;;;12.00;;
58784;SDS011;44557;51.862;19.378;2023-07-29T04:41:55;18.70;;;12.60;;
58784;SDS011;44557;51.862;19.378;2023-07-29T04:43:58;13.90;;;11.60;;
58784;SDS011;44557;51.862;19.378;2023-07-29T04:46:00;15.80;;;12.60;;
58784;SDS011;44557;51.862;19.378;2023-07-29T04:48:02;23.30;;;12.40;;
58784;SDS011;44557;51.862;19.378;2023-07-29T04:50:03;14.60;;;12.40;;
58784;SDS011;44557;51.862;19.378;2023-07-29T04:52:06;14.70;;;12.80;;
58784;SDS011;44557;51.862;19.378;2023-07-29T04:54:08;13.60;;;11.50;;
58784;SDS011;44557;51.862;19.378;2023-07-29T04:56:10;14.00;;;11.80;;
58784;SDS011;44557;51.862;19.378;2023-07-29T04:58:11;13.20;;;11.60;;
58784;SDS011;44557;51.862;19.378;2023-07-29T05:00:13;13.10;;;10.80;;
58784;SDS011;44557;51.862;19.378;2023-07-29T05:02:15;13.20;;;10.70;;
58784;SDS011;44557;51.862;19.378;2023-07-29T05:04:16;11.70;;;9.70;;
58784;SDS011;44557;51.862;19.378;2023-07-29T05:06:18;15.10;;;10.70;;
58784;SDS011;44557;51.862;19.378;2023-07-29T05:08:21;11.20;;;9.50;;
58784;SDS011;44557;51.862;19.378;2023-07-29T05:10:23;12.20;;;10.40;;
58784;SDS011;44557;51.862;19.378;2023-07-29T05:12:26;14.90;;;10.40;;
58784;SDS011;44557;51.862;19.378;2023-07-29T05:14:27;11.80;;;10.20;;
58784;SDS011;44557;51.862;19.378;2023-07-29T05:16:29;10.50;;;9.40;;
58784;SDS011;44557;51.862;19.378;2023-07-29T05:18:31;10.70;;;9.60;;
58784;SDS011;44557;51.862;19.378;2023-07-29T05:20:32;11.60;;;10.10;;
58784;SDS011;44557;51.862;19.378;2023-07-29T05:22:34;14.30;;;10.90;;
58784;SDS011;44557;51.862;19.378;2023-07-29T05:24:35;11.30;;;10.10;;
58784;SDS011;44557;51.862;19.378;2023-07-29T05:26:37;18.40;;;10.50;;
58784;SDS011;44557;51.862;19.378;2023-07-29T05:28:39;19.30;;;11.70;;
58784;SDS011;44557;51.862;19.378;2023-07-29T05:30:40;17.50;;;12.00;;
58784;SDS011;44557;51.862;19.378;2023-07-29T05:32:42;12.90;;;11.30;;
58784;SDS011;44557;51.862;19.378;2023-07-29T05:34:43;13.40;;;11.60;;
58784;SDS011;44557;51.862;19.378;2023-07-29T05:36:46;15.70;;;12.10;;
58784;SDS011;44557;51.862;19.378;2023-07-29T05:38:47;14.90;;;12.90;;
58784;SDS011;44557;51.862;19.378;2023-07-29T05:40:49;15.80;;;12.30;;
58784;SDS011;44557;51.862;19.378;2023-07-29T05:42:51;15.00;;;12.00;;
58784;SDS011;44557;51.862;19.378;2023-07-29T05:44:52;14.80;;;12.30;;
58784;SDS011;44557;51.862;19.378;2023-07-29T05:46:54;15.60;;;13.00;;
58784;SDS011;44557;51.862;19.378;2023-07-29T05:48:56;18.00;;;13.20;;
58784;SDS011;44557;51.862;19.378;2023-07-29T05:50:57;25.00;;;13.20;;
58784;SDS011;44557;51.862;19.378;2023-07-29T05:52:59;19.80;;;13.00;;
58784;SDS011;44557;51.862;19.378;2023-07-29T05:55:01;18.10;;;13.50;;
58784;SDS011;44557;51.862;19.378;2023-07-29T05:57:03;14.50;;;12.40;;
58784;SDS011;44557;51.862;19.378;2023-07-29T05:59:05;13.50;;;11.90;;
58784;SDS011;44557;51.862;19.378;2023-07-29T06:01:06;16.50;;;13.60;;
58784;SDS011;44557;51.862;19.378;2023-07-29T06:03:08;15.40;;;13.20;;
58784;SDS011;44557;51.862;19.378;2023-07-29T06:05:10;15.10;;;13.20;;
58784;SDS011;44557;51.862;19.378;2023-07-29T06:07:11;14.80;;;13.10;;
58784;SDS011;44557;51.862;19.378;2023-07-29T06:09:13;14.60;;;13.00;;
58784;SDS011;44557;51.862;19.378;2023-07-29T06:11:16;14.60;;;13.10;;
58784;SDS011;44557;51.862;19.378;2023-07-29T06:13:17;15.20;;;13.20;;
58784;SDS011;44557;51.862;19.378;2023-07-29T06:15:20;15.40;;;13.00;;
58784;SDS011;44557;51.862;19.378;2023-07-29T06:17:23;17.80;;;13.80;;
58784;SDS011;44557;51.862;19.378;2023-07-29T06:19:25;14.20;;;12.70;;
58784;SDS011;44557;51.862;19.378;2023-07-29T06:21:27;14.90;;;12.30;;
58784;SDS011;44557;51.862;19.378;2023-07-29T06:23:29;13.80;;;12.10;;
58784;SDS011;44557;51.862;19.378;2023-07-29T06:25:30;14.10;;;12.70;;
58784;SDS011;44557;51.862;19.378;2023-07-29T06:27:32;14.60;;;12.90;;
58784;SDS011;44557;51.862;19.378;2023-07-29T06:29:33;16.20;;;14.50;;
58784;SDS011;44557;51.862;19.378;2023-07-29T06:31:35;15.40;;;13.50;;
58784;SDS011;44557;51.862;19.378;2023-07-29T06:33:37;16.00;;;14.00;;
58784;SDS011;44557;51.862;19.378;2023-07-29T06:35:38;20.10;;;17.60;;
58784;SDS011;44557;51.862;19.378;2023-07-29T06:37:40;16.10;;;14.30;;
58784;SDS011;44557;51.862;19.378;2023-07-29T06:39:41;16.10;;;13.90;;
58784;SDS011;44557;51.862;19.378;2023-07-29T06:41:43;13.60;;;12.20;;
58784;SDS011;44557;51.862;19.378;2023-07-29T06:43:45;12.30;;;11.00;;
58784;SDS011;44557;51.862;19.378;2023-07-29T06:45:46;12.90;;;11.00;;
58784;SDS011;44557;51.862;19.378;2023-07-29T06:47:48;11.10;;;9.60;;
58784;SDS011;44557;51.862;19.378;2023-07-29T06:49:49;10.50;;;9.00;;
58784;SDS011;44557;51.862;19.378;2023-07-29T06:51:51;10.40;;;9.00;;
58784;SDS011;44557;51.862;19.378;2023-07-29T06:53:52;10.60;;;8.40;;
58784;SDS011;44557;51.862;19.378;2023-07-29T06:55:54;10.60;;;8.80;;
58784;SDS011;44557;51.862;19.378;2023-07-29T06:57:56;11.90;;;9.10;;
58784;SDS011;44557;51.862;19.378;2023-07-29T06:59:57;11.40;;;8.70;;
58784;SDS011;44557;51.862;19.378;2023-07-29T07:01:59;9.80;;;8.50;;
58784;SDS011;44557;51.862;19.378;2023-07-29T07:04:01;9.20;;;8.00;;
58784;SDS011;44557;51.862;19.378;2023-07-29T07:06:03;9.30;;;7.80;;
58784;SDS011;44557;51.862;19.378;2023-07-29T07:08:05;10.00;;;7.90;;
58784;SDS011;44557;51.862;19.378;2023-07-29T07:10:07;10.50;;;8.00;;
58784;SDS011;44557;51.862;19.378;2023-07-29T07:12:09;10.20;;;7.90;;
58784;SDS011;44557;51.862;19.378;2023-07-29T07:14:11;9.90;;;8.20;;
58784;SDS011;44557;51.862;19.378;2023-07-29T07:16:13;9.70;;;7.50;;
58784;SDS011;44557;51.862;19.378;2023-07-29T07:18:14;8.60;;;7.10;;
58784;SDS011;44557;51.862;19.378;2023-07-29T07:20:16;11.50;;;7.90;;
58784;SDS011;44557;51.862;19.378;2023-07-29T07:22:17;9.00;;;7.20;;
58784;SDS011;44557;51.862;19.378;2023-07-29T07:24:19;9.70;;;6.90;;
58784;SDS011;44557;51.862;19.378;2023-07-29T07:26:21;9.50;;;7.90;;
58784;SDS011;44557;51.862;19.378;2023-07-29T07:28:22;8.80;;;7.40;;
58784;SDS011;44557;51.862;19.378;2023-07-29T07:30:24;9.20;;;6.50;;
58784;SDS011;44557;51.862;19.378;2023-07-29T07:32:26;9.50;;;6.90;;
58784;SDS011;44557;51.862;19.378;2023-07-29T07:34:27;8.60;;;6.20;;
58784;SDS011;44557;51.862;19.378;2023-07-29T07:36:29;7.40;;;5.80;;
58784;SDS011;44557;51.862;19.378;2023-07-29T07:38:31;7.20;;;5.20;;
58784;SDS011;44557;51.862;19.378;2023-07-29T07:40:33;7.80;;;5.30;;
58784;SDS011;44557;51.862;19.378;2023-07-29T07:42:34;8.00;;;5.00;;
58784;SDS011;44557;51.862;19.378;2023-07-29T07:44:36;7.50;;;5.60;;
58784;SDS011;44557;51.862;19.378;2023-07-29T07:46:38;7.20;;;5.30;;
58784;SDS011;44557;51.862;19.378;2023-07-29T07:48:39;8.60;;;5.50;;
58784;SDS011;44557;51.862;19.378;2023-07-29T07:50:41;7.60;;;6.00;;
58784;SDS011;44557;51.862;19.378;2023-07-29T07:52:42;7.40;;;5.60;;
58784;SDS011;44557;51.862;19.378;2023-07-29T07:54:44;8.90;;;5.20;;
58784;SDS011;44557;51.862;19.378;2023-07-29T07:56:46;6.40;;;4.90;;
58784;SDS011;44557;51.862;19.378;2023-07-29T07:58:48;9.20;;;4.20;;
58784;SDS011;44557;51.862;19.378;2023-07-29T08:00:49;5.50;;;3.90;;
58784;SDS011;44557;51.862;19.378;2023-07-29T08:02:51;5.20;;;3.30;;
58784;SDS011;44557;51.862;19.378;2023-07-29T08:04:52;5.60;;;4.20;;
58784;SDS011;44557;51.862;19.378;2023-07-29T08:06:54;5.30;;;3.40;;
58784;SDS011;44557;51.862;19.378;2023-07-29T08:08:56;6.60;;;3.90;;
58784;SDS011;44557;51.862;19.378;2023-07-29T08:10:58;4.20;;;3.10;;
58784;SDS011;44557;51.862;19.378;2023-07-29T08:12:59;5.10;;;3.20;;
58784;SDS011;44557;51.862;19.378;2023-07-29T08:15:01;6.90;;;4.30;;
58784;SDS011;44557;51.862;19.378;2023-07-29T08:17:04;6.00;;;4.50;;
58784;SDS011;44557;51.862;19.378;2023-07-29T08:19:05;6.50;;;5.00;;
58784;SDS011;44557;51.862;19.378;2023-07-29T08:21:08;6.10;;;4.30;;
58784;SDS011;44557;51.862;19.378;2023-07-29T08:23:10;6.10;;;4.10;;
58784;SDS011;44557;51.862;19.378;2023-07-29T08:25:11;5.20;;;3.50;;
58784;SDS011;44557;51.862;19.378;2023-07-29T08:27:13;5.30;;;4.50;;
58784;SDS011;44557;51.862;19.378;2023-07-29T08:29:14;5.90;;;4.40;;
58784;SDS011;44557;51.862;19.378;2023-07-29T08:31:16;6.30;;;4.30;;
58784;SDS011;44557;51.862;19.378;2023-07-29T08:33:17;8.00;;;4.50;;
58784;SDS011;44557;51.862;19.378;2023-07-29T08:35:19;6.30;;;3.70;;
58784;SDS011;44557;51.862;19.378;2023-07-29T08:37:21;5.90;;;3.70;;
58784;SDS011;44557;51.862;19.378;2023-07-29T08:39:22;5.20;;;4.00;;
58784;SDS011;44557;51.862;19.378;2023-07-29T08:44:09;6.70;;;4.40;;
58784;SDS011;44557;51.862;19.378;2023-07-29T08:46:19;5.70;;;3.90;;
58784;SDS011;44557;51.862;19.378;2023-07-29T08:48:23;5.50;;;3.80;;
58784;SDS011;44557;51.862;19.378;2023-07-29T08:50:40;4.20;;;3.50;;
58784;SDS011;44557;51.862;19.378;2023-07-29T08:52:43;4.10;;;3.20;;
58784;SDS011;44557;51.862;19.378;2023-07-29T08:54:46;4.00;;;3.20;;
58784;SDS011;44557;51.862;19.378;2023-07-29T08:56:48;4.60;;;2.90;;
58784;SDS011;44557;51.862;19.378;2023-07-29T08:58:51;4.60;;;2.90;;
58784;SDS011;44557;51.862;19.378;2023-07-29T09:00:53;4.90;;;3.30;;
58784;SDS011;44557;51.862;19.378;2023-07-29T09:02:55;4.40;;;2.90;;
58784;SDS011;44557;51.862;19.378;2023-07-29T09:04:59;4.10;;;3.10;;
58784;SDS011;44557;51.862;19.378;2023-07-29T09:07:00;7.20;;;3.10;;
58784;SDS011;44557;51.862;19.378;2023-07-29T09:09:03;4.40;;;2.80;;
58784;SDS011;44557;51.862;19.378;2023-07-29T09:11:05;5.30;;;3.30;;
58784;SDS011;44557;51.862;19.378;2023-07-29T09:13:07;4.70;;;3.10;;
58784;SDS011;44557;51.862;19.378;2023-07-29T09:15:09;3.90;;;2.70;;
58784;SDS011;44557;51.862;19.378;2023-07-29T09:17:11;4.00;;;2.80;;
58784;SDS011;44557;51.862;19.378;2023-07-29T09:19:13;4.40;;;3.00;;
58784;SDS011;44557;51.862;19.378;2023-07-29T09:21:15;5.40;;;2.70;;
58784;SDS011;44557;51.862;19.378;2023-07-29T09:23:18;11.80;;;3.40;;
58784;SDS011;44557;51.862;19.378;2023-07-29T09:25:26;4.60;;;3.10;;
58784;SDS011;44557;51.862;19.378;2023-07-29T09:27:30;4.60;;;2.90;;
58784;SDS011;44557;51.862;19.378;2023-07-29T09:29:35;3.50;;;2.80;;
58784;SDS011;44557;51.862;19.378;2023-07-29T09:31:37;6.20;;;2.80;;
58784;SDS011;44557;51.862;19.378;2023-07-29T09:33:38;3.80;;;2.60;;
58784;SDS011;44557;51.862;19.378;2023-07-29T09:35:40;3.60;;;2.20;;
58784;SDS011;44557;51.862;19.378;2023-07-29T09:37:43;3.20;;;2.40;;
58784;SDS011;44557;51.862;19.378;2023-07-29T09:39:45;3.90;;;2.60;;
58784;SDS011;44557;51.862;19.378;2023-07-29T09:41:47;3.70;;;2.60;;
58784;SDS011;44557;51.862;19.378;2023-07-29T09:44:00;4.40;;;2.60;;
58784;SDS011;44557;51.862;19.378;2023-07-29T09:46:04;4.80;;;2.50;;
58784;SDS011;44557;51.862;19.378;2023-07-29T09:48:08;3.00;;;2.70;;
58784;SDS011;44557;51.862;19.378;2023-07-29T09:50:12;3.00;;;2.50;;
58784;SDS011;44557;51.862;19.378;2023-07-29T09:52:15;5.00;;;2.30;;
58784;SDS011;44557;51.862;19.378;2023-07-29T09:54:20;4.20;;;2.30;;
58784;SDS011;44557;51.862;19.378;2023-07-29T09:56:24;3.90;;;2.20;;
58784;SDS011;44557;51.862;19.378;2023-07-29T09:58:28;4.20;;;2.60;;
58784;SDS011;44557;51.862;19.378;2023-07-29T10:00:30;8.00;;;2.60;;
58784;SDS011;44557;51.862;19.378;2023-07-29T10:02:33;2.50;;;2.30;;
58784;SDS011;44557;51.862;19.378;2023-07-29T10:04:35;5.20;;;2.90;;
58784;SDS011;44557;51.862;19.378;2023-07-29T10:06:37;6.60;;;2.60;;
58784;SDS011;44557;51.862;19.378;2023-07-29T10:08:40;3.60;;;2.70;;
58784;SDS011;44557;51.862;19.378;2023-07-29T10:10:43;3.50;;;2.20;;
58784;SDS011;44557;51.862;19.378;2023-07-29T10:12:47;3.70;;;2.40;;
58784;SDS011;44557;51.862;19.378;2023-07-29T10:14:49;3.70;;;2.60;;
58784;SDS011;44557;51.862;19.378;2023-07-29T10:16:51;4.00;;;2.60;;
58784;SDS011;44557;51.862;19.378;2023-07-29T10:18:54;3.00;;;2.40;;
58784;SDS011;44557;51.862;19.378;2023-07-29T10:20:59;5.20;;;2.50;;
58784;SDS011;44557;51.862;19.378;2023-07-29T10:23:02;4.50;;;2.30;;
58784;SDS011;44557;51.862;19.378;2023-07-29T10:25:10;3.40;;;2.10;;
58784;SDS011;44557;51.862;19.378;2023-07-29T10:27:18;3.50;;;2.40;;
58784;SDS011;44557;51.862;19.378;2023-07-29T10:29:22;4.00;;;2.40;;
58784;SDS011;44557;51.862;19.378;2023-07-29T10:31:25;3.90;;;2.50;;
58784;SDS011;44557;51.862;19.378;2023-07-29T10:33:27;4.80;;;2.40;;
58784;SDS011;44557;51.862;19.378;2023-07-29T10:35:29;5.60;;;3.00;;
58784;SDS011;44557;51.862;19.378;2023-07-29T10:37:31;5.20;;;3.10;;
58784;SDS011;44557;51.862;19.378;2023-07-29T10:39:37;5.20;;;3.30;;
58784;SDS011;44557;51.862;19.378;2023-07-29T10:41:54;6.40;;;4.40;;
58784;SDS011;44557;51.862;19.378;2023-07-29T10:44:00;3.50;;;2.80;;
58784;SDS011;44557;51.862;19.378;2023-07-29T10:46:14;4.60;;;2.70;;
58784;SDS011;44557;51.862;19.378;2023-07-29T10:50:36;4.20;;;2.70;;
58784;SDS011;44557;51.862;19.378;2023-07-29T10:52:41;3.20;;;2.10;;
58784;SDS011;44557;51.862;19.378;2023-07-29T10:54:46;3.40;;;2.40;;
58784;SDS011;44557;51.862;19.378;2023-07-29T10:56:49;3.60;;;2.30;;
58784;SDS011;44557;51.862;19.378;2023-07-29T10:58:54;3.30;;;2.50;;
58784;SDS011;44557;51.862;19.378;2023-07-29T11:00:58;2.60;;;2.30;;
58784;SDS011;44557;51.862;19.378;2023-07-29T11:03:01;4.20;;;2.90;;
58784;SDS011;44557;51.862;19.378;2023-07-29T11:05:07;3.50;;;2.50;;
58784;SDS011;44557;51.862;19.378;2023-07-29T11:07:19;3.20;;;2.40;;
58784;SDS011;44557;51.862;19.378;2023-07-29T11:09:40;3.10;;;2.30;;
58784;SDS011;44557;51.862;19.378;2023-07-29T11:11:51;5.60;;;2.70;;
58784;SDS011;44557;51.862;19.378;2023-07-29T11:13:53;4.50;;;2.60;;
58784;SDS011;44557;51.862;19.378;2023-07-29T11:15:55;4.10;;;2.60;;
58784;SDS011;44557;51.862;19.378;2023-07-29T11:18:00;6.30;;;5.50;;
58784;SDS011;44557;51.862;19.378;2023-07-29T11:20:06;3.30;;;2.50;;
58784;SDS011;44557;51.862;19.378;2023-07-29T11:22:09;3.50;;;2.50;;
58784;SDS011;44557;51.862;19.378;2023-07-29T11:24:17;3.10;;;2.50;;
58784;SDS011;44557;51.862;19.378;2023-07-29T11:26:20;4.60;;;2.40;;
58784;SDS011;44557;51.862;19.378;2023-07-29T11:28:22;4.70;;;2.40;;
58784;SDS011;44557;51.862;19.378;2023-07-29T11:30:25;3.50;;;2.30;;
58784;SDS011;44557;51.862;19.378;2023-07-29T11:32:31;4.20;;;2.90;;
58784;SDS011;44557;51.862;19.378;2023-07-29T11:34:35;4.50;;;2.70;;
58784;SDS011;44557;51.862;19.378;2023-07-29T11:36:37;3.00;;;2.30;;
58784;SDS011;44557;51.862;19.378;2023-07-29T11:38:40;6.20;;;2.90;;
58784;SDS011;44557;51.862;19.378;2023-07-29T11:40:42;3.80;;;2.70;;
58784;SDS011;44557;51.862;19.378;2023-07-29T11:42:45;4.50;;;3.20;;
58784;SDS011;44557;51.862;19.378;2023-07-29T11:44:48;5.80;;;2.50;;
58784;SDS011;44557;51.862;19.378;2023-07-29T11:46:50;7.10;;;2.40;;
58784;SDS011;44557;51.862;19.378;2023-07-29T11:48:53;3.80;;;2.40;;
58784;SDS011;44557;51.862;19.378;2023-07-29T11:50:56;3.20;;;2.20;;
58784;SDS011;44557;51.862;19.378;2023-07-29T11:53:00;2.80;;;2.40;;
58784;SDS011;44557;51.862;19.378;2023-07-29T11:55:02;4.50;;;2.30;;
58784;SDS011;44557;51.862;19.378;2023-07-29T11:57:07;5.10;;;2.30;;
58784;SDS011;44557;51.862;19.378;2023-07-29T11:59:11;3.40;;;2.50;;
58784;SDS011;44557;51.862;19.378;2023-07-29T12:01:13;2.90;;;2.10;;
58784;SDS011;44557;51.862;19.378;2023-07-29T12:03:16;3.80;;;2.50;;
58784;SDS011;44557;51.862;19.378;2023-07-29T12:05:22;4.90;;;2.50;;
58784;SDS011;44557;51.862;19.378;2023-07-29T12:07:25;5.50;;;2.50;;
58784;SDS011;44557;51.862;19.378;2023-07-29T12:09:27;3.30;;;2.50;;
58784;SDS011;44557;51.862;19.378;2023-07-29T12:11:31;3.80;;;2.20;;
58784;SDS011;44557;51.862;19.378;2023-07-29T12:13:37;7.80;;;2.50;;
58784;SDS011;44557;51.862;19.378;2023-07-29T12:15:39;4.80;;;3.00;;